APG211 RPLL-RPVE
Flight info
| Callsign | APG211 |
|---|---|
| Flight time | 0h 34m |
| Altitude | 25000 |
| Route | VERDE2R VERDE W24 TAPER TAPER7B |
| Aircraft | A320/M-SDE3FGHIRWY/LB1 |
Departure
| Time | 2026-05-07 16:10 |
|---|---|
| Airport | Ninoy Aquino International Airport (RPLL) |
Arrival
| Time | 2026-05-07 16:44 |
|---|---|
| Airport | Godofredo P. Ramos Airport (RPVE) |
| Time | Latitude | Longitude | Altitude | Speed | Heading |
|---|---|---|---|---|---|
| 2026-05-07 15:55 | 14.50827 | 121.01273 | 68 ft | 0 kts | 330° |
| 2026-05-07 15:59 | 14.50822 | 121.01276 | 68 ft | 4 kts | 329° |
| 2026-05-07 15:59 | 14.50799 | 121.01290 | 59 ft | 4 kts | 324° |
| 2026-05-07 16:00 | 14.50778 | 121.01308 | 59 ft | 4 kts | 313° |
| 2026-05-07 16:00 | 14.50764 | 121.01329 | 62 ft | 4 kts | 276° |
| 2026-05-07 16:00 | 14.50765 | 121.01342 | 60 ft | 0 kts | 241° |
| 2026-05-07 16:04 | 14.50764 | 121.01340 | 66 ft | 2 kts | 241° |
| 2026-05-07 16:05 | 14.50755 | 121.01325 | 62 ft | 5 kts | 239° |
| 2026-05-07 16:05 | 14.50692 | 121.01319 | 69 ft | 12 kts | 170° |
| 2026-05-07 16:05 | 14.50634 | 121.01256 | 65 ft | 15 kts | 240° |
| 2026-05-07 16:05 | 14.50572 | 121.01145 | 60 ft | 21 kts | 239° |
| 2026-05-07 16:06 | 14.50486 | 121.01009 | 65 ft | 23 kts | 236° |
| 2026-05-07 16:06 | 14.50415 | 121.00861 | 66 ft | 25 kts | 240° |
| 2026-05-07 16:06 | 14.50323 | 121.00698 | 66 ft | 27 kts | 240° |
| 2026-05-07 16:06 | 14.50226 | 121.00525 | 61 ft | 27 kts | 240° |
| 2026-05-07 16:07 | 14.50129 | 121.00350 | 57 ft | 29 kts | 240° |
| 2026-05-07 16:07 | 14.50029 | 121.00171 | 63 ft | 25 kts | 240° |
| 2026-05-07 16:07 | 14.49950 | 121.00029 | 61 ft | 19 kts | 240° |
| 2026-05-07 16:07 | 14.49890 | 120.99961 | 69 ft | 11 kts | 186° |
| 2026-05-07 16:08 | 14.49865 | 120.99971 | 67 ft | 0 kts | 149° |
| 2026-05-07 16:08 | 14.49857 | 120.99976 | 69 ft | 4 kts | 149° |
| 2026-05-07 16:08 | 14.49822 | 120.99998 | 65 ft | 8 kts | 142° |
| 2026-05-07 16:08 | 14.49818 | 121.00073 | 68 ft | 13 kts | 59° |
| 2026-05-07 16:09 | 14.49869 | 121.00159 | 64 ft | 13 kts | 60° |
| 2026-05-07 16:09 | 14.49910 | 121.00233 | 64 ft | 15 kts | 60° |
| 2026-05-07 16:09 | 14.50041 | 121.00467 | 61 ft | 74 kts | 60° |
| 2026-05-07 16:09 | 14.50413 | 121.01137 | 69 ft | 137 kts | 60° |
| 2026-05-07 16:10 | 14.50973 | 121.02137 | 223 ft | 171 kts | 61° |
| 2026-05-07 16:10 | 14.51554 | 121.03169 | 961 ft | 166 kts | 61° |
| 2026-05-07 16:10 | 14.52137 | 121.04218 | 1502 ft | 175 kts | 60° |
| 2026-05-07 16:10 | 14.52770 | 121.05391 | 1785 ft | 200 kts | 65° |
| 2026-05-07 16:11 | 14.52982 | 121.06874 | 2102 ft | 225 kts | 101° |
| 2026-05-07 16:11 | 14.52162 | 121.08320 | 2472 ft | 252 kts | 139° |
| 2026-05-07 16:11 | 14.50510 | 121.09064 | 3127 ft | 268 kts | 166° |
| 2026-05-07 16:11 | 14.48640 | 121.09274 | 3996 ft | 273 kts | 175° |
| 2026-05-07 16:12 | 14.46731 | 121.09285 | 4862 ft | 275 kts | 178° |
| 2026-05-07 16:12 | 14.44804 | 121.09247 | 5690 ft | 279 kts | 179° |
| 2026-05-07 16:12 | 14.42849 | 121.09222 | 6498 ft | 283 kts | 178° |
| 2026-05-07 16:12 | 14.40868 | 121.09227 | 7237 ft | 286 kts | 177° |
| 2026-05-07 16:13 | 14.38869 | 121.09261 | 8023 ft | 289 kts | 175° |
| 2026-05-07 16:13 | 14.36850 | 121.09317 | 8811 ft | 292 kts | 174° |
| 2026-05-07 16:13 | 14.34811 | 121.09389 | 9602 ft | 295 kts | 174° |
| 2026-05-07 16:13 | 14.32747 | 121.09469 | 10234 ft | 303 kts | 174° |
| 2026-05-07 16:14 | 14.30590 | 121.09560 | 10430 ft | 326 kts | 174° |
| 2026-05-07 16:14 | 14.28241 | 121.09659 | 10598 ft | 348 kts | 175° |
| 2026-05-07 16:14 | 14.25784 | 121.09756 | 11081 ft | 357 kts | 175° |
| 2026-05-07 16:14 | 14.23285 | 121.09851 | 11708 ft | 361 kts | 175° |
| 2026-05-07 16:15 | 14.20765 | 121.09944 | 12356 ft | 364 kts | 177° |
| 2026-05-07 16:15 | 14.18214 | 121.10036 | 12978 ft | 368 kts | 176° |
| 2026-05-07 16:15 | 14.15655 | 121.10130 | 13622 ft | 368 kts | 176° |
| 2026-05-07 16:15 | 14.13075 | 121.10226 | 14092 ft | 374 kts | 176° |
| 2026-05-07 16:16 | 14.10485 | 121.10325 | 14700 ft | 374 kts | 178° |
| 2026-05-07 16:16 | 14.07859 | 121.10427 | 15146 ft | 380 kts | 176° |
| 2026-05-07 16:16 | 14.05196 | 121.10531 | 15617 ft | 385 kts | 176° |
| 2026-05-07 16:16 | 14.02506 | 121.10634 | 16110 ft | 389 kts | 176° |
| 2026-05-07 16:17 | 13.99792 | 121.10738 | 16615 ft | 392 kts | 176° |
| 2026-05-07 16:17 | 13.97057 | 121.10844 | 17102 ft | 396 kts | 176° |
| 2026-05-07 16:17 | 13.94289 | 121.10951 | 17603 ft | 399 kts | 176° |
| 2026-05-07 16:17 | 13.91506 | 121.11057 | 18111 ft | 402 kts | 176° |
| 2026-05-07 16:18 | 13.88697 | 121.11161 | 18560 ft | 405 kts | 176° |
| 2026-05-07 16:18 | 13.85890 | 121.11265 | 18995 ft | 408 kts | 176° |
| 2026-05-07 16:18 | 13.83037 | 121.11374 | 19419 ft | 411 kts | 176° |
| 2026-05-07 16:18 | 13.80163 | 121.11487 | 19878 ft | 414 kts | 176° |
| 2026-05-07 16:19 | 13.77275 | 121.11598 | 20334 ft | 417 kts | 176° |
| 2026-05-07 16:19 | 13.74614 | 121.11698 | 20754 ft | 419 kts | 176° |
| 2026-05-07 16:19 | 13.71698 | 121.11811 | 21195 ft | 422 kts | 175° |
| 2026-05-07 16:19 | 13.68750 | 121.11928 | 21629 ft | 424 kts | 175° |
| 2026-05-07 16:20 | 13.65796 | 121.12045 | 22042 ft | 427 kts | 176° |
| 2026-05-07 16:20 | 13.62825 | 121.12158 | 22471 ft | 429 kts | 176° |
| 2026-05-07 16:20 | 13.59840 | 121.12267 | 22896 ft | 432 kts | 176° |
| 2026-05-07 16:20 | 13.56819 | 121.12379 | 23305 ft | 434 kts | 176° |
| 2026-05-07 16:21 | 13.53789 | 121.12493 | 23673 ft | 436 kts | 176° |
| 2026-05-07 16:21 | 13.50747 | 121.12610 | 23996 ft | 438 kts | 176° |
| 2026-05-07 16:21 | 13.47702 | 121.12729 | 24328 ft | 440 kts | 176° |
| 2026-05-07 16:21 | 13.44624 | 121.12846 | 24643 ft | 443 kts | 176° |
| 2026-05-07 16:22 | 13.41643 | 121.12956 | 24845 ft | 444 kts | 176° |
| 2026-05-07 16:22 | 13.38572 | 121.13291 | 24865 ft | 443 kts | 167° |
| 2026-05-07 16:22 | 13.35622 | 121.14158 | 24865 ft | 440 kts | 157° |
| 2026-05-07 16:22 | 13.32881 | 121.15520 | 24873 ft | 438 kts | 148° |
| 2026-05-07 16:23 | 13.30347 | 121.17252 | 24871 ft | 438 kts | 144° |
| 2026-05-07 16:23 | 13.27843 | 121.19011 | 24871 ft | 437 kts | 144° |
| 2026-05-07 16:23 | 13.25326 | 121.20775 | 24871 ft | 437 kts | 144° |
| 2026-05-07 16:23 | 13.22809 | 121.22539 | 24872 ft | 438 kts | 144° |
| 2026-05-07 16:24 | 13.20286 | 121.24305 | 24880 ft | 438 kts | 144° |
| 2026-05-07 16:24 | 13.17766 | 121.26069 | 24880 ft | 439 kts | 145° |
| 2026-05-07 16:24 | 13.15241 | 121.27837 | 24879 ft | 439 kts | 145° |
| 2026-05-07 16:24 | 13.12716 | 121.29604 | 24880 ft | 439 kts | 145° |
| 2026-05-07 16:25 | 13.10186 | 121.31375 | 24874 ft | 440 kts | 145° |
| 2026-05-07 16:25 | 13.07658 | 121.33146 | 24876 ft | 440 kts | 145° |
| 2026-05-07 16:25 | 13.05126 | 121.34914 | 24877 ft | 440 kts | 145° |
| 2026-05-07 16:25 | 13.02596 | 121.36681 | 24877 ft | 439 kts | 145° |
| 2026-05-07 16:26 | 13.00923 | 121.37851 | 24874 ft | 439 kts | 145° |
| 2026-05-07 16:26 | 12.97583 | 121.40194 | 24874 ft | 439 kts | 145° |
| 2026-05-07 16:26 | 12.95059 | 121.41963 | 24480 ft | 436 kts | 144° |
| 2026-05-07 16:26 | 12.93407 | 121.43120 | 24098 ft | 435 kts | 144° |
| 2026-05-07 16:27 | 12.90074 | 121.45456 | 23381 ft | 430 kts | 144° |
| 2026-05-07 16:27 | 12.88438 | 121.46601 | 22979 ft | 428 kts | 144° |
| 2026-05-07 16:27 | 12.85988 | 121.48311 | 22414 ft | 424 kts | 144° |
| 2026-05-07 16:27 | 12.83562 | 121.50004 | 21879 ft | 420 kts | 144° |
| 2026-05-07 16:28 | 12.81160 | 121.51680 | 21361 ft | 417 kts | 144° |
| 2026-05-07 16:28 | 12.78698 | 121.53229 | 20863 ft | 414 kts | 154° |
| 2026-05-07 16:28 | 12.75959 | 121.54126 | 20360 ft | 413 kts | 165° |
| 2026-05-07 16:28 | 12.73162 | 121.54763 | 19854 ft | 411 kts | 166° |
| 2026-05-07 16:29 | 12.70376 | 121.55382 | 19377 ft | 408 kts | 166° |
| 2026-05-07 16:29 | 12.67610 | 121.55992 | 18915 ft | 405 kts | 166° |
| 2026-05-07 16:29 | 12.64858 | 121.56598 | 18457 ft | 403 kts | 166° |
| 2026-05-07 16:29 | 12.62128 | 121.57199 | 17989 ft | 400 kts | 166° |
| 2026-05-07 16:30 | 12.59424 | 121.57795 | 17473 ft | 397 kts | 166° |
| 2026-05-07 16:30 | 12.56740 | 121.58390 | 16989 ft | 393 kts | 166° |
| 2026-05-07 16:30 | 12.54074 | 121.58983 | 16484 ft | 390 kts | 165° |
| 2026-05-07 16:30 | 12.51488 | 121.59558 | 16022 ft | 388 kts | 166° |
| 2026-05-07 16:31 | 12.48848 | 121.60142 | 15545 ft | 385 kts | 166° |
| 2026-05-07 16:31 | 12.46239 | 121.60718 | 15078 ft | 382 kts | 165° |
| 2026-05-07 16:31 | 12.43645 | 121.61293 | 14619 ft | 379 kts | 165° |
| 2026-05-07 16:31 | 12.41081 | 121.61860 | 14168 ft | 377 kts | 165° |
| 2026-05-07 16:32 | 12.38525 | 121.62427 | 13729 ft | 374 kts | 165° |
| 2026-05-07 16:32 | 12.35994 | 121.62987 | 13223 ft | 371 kts | 165° |
| 2026-05-07 16:32 | 12.33481 | 121.63543 | 12740 ft | 368 kts | 165° |
| 2026-05-07 16:32 | 12.30990 | 121.64095 | 12243 ft | 365 kts | 165° |
| 2026-05-07 16:33 | 12.28518 | 121.64643 | 11752 ft | 362 kts | 165° |
| 2026-05-07 16:33 | 12.26069 | 121.65185 | 11305 ft | 358 kts | 165° |
| 2026-05-07 16:33 | 12.23715 | 121.65702 | 11177 ft | 344 kts | 165° |
| 2026-05-07 16:33 | 12.21393 | 121.66210 | 11060 ft | 330 kts | 165° |
| 2026-05-07 16:34 | 12.19209 | 121.66688 | 10942 ft | 318 kts | 165° |
| 2026-05-07 16:34 | 12.17084 | 121.67154 | 10823 ft | 307 kts | 165° |
| 2026-05-07 16:34 | 12.15003 | 121.67611 | 10636 ft | 298 kts | 164° |
| 2026-05-07 16:34 | 12.12988 | 121.68055 | 10319 ft | 295 kts | 164° |
| 2026-05-07 16:35 | 12.10985 | 121.68500 | 9982 ft | 293 kts | 164° |
| 2026-05-07 16:35 | 12.08997 | 121.68944 | 9632 ft | 291 kts | 164° |
| 2026-05-07 16:35 | 12.07048 | 121.69377 | 9250 ft | 290 kts | 164° |
| 2026-05-07 16:35 | 12.05085 | 121.69814 | 8843 ft | 288 kts | 163° |
| 2026-05-07 16:36 | 12.03125 | 121.70251 | 8466 ft | 287 kts | 163° |
| 2026-05-07 16:36 | 12.01186 | 121.70682 | 8086 ft | 285 kts | 163° |
| 2026-05-07 16:36 | 11.99248 | 121.71112 | 7708 ft | 283 kts | 163° |
| 2026-05-07 16:36 | 11.97331 | 121.71537 | 7378 ft | 279 kts | 163° |
| 2026-05-07 16:37 | 11.95469 | 121.71944 | 7259 ft | 267 kts | 163° |
| 2026-05-07 16:37 | 11.93694 | 121.72331 | 7137 ft | 255 kts | 163° |
| 2026-05-07 16:37 | 11.91995 | 121.72703 | 7015 ft | 244 kts | 163° |
| 2026-05-07 16:37 | 11.90430 | 121.73247 | 6768 ft | 234 kts | 148° |
| 2026-05-07 16:38 | 11.89000 | 121.73996 | 6578 ft | 226 kts | 148° |
| 2026-05-07 16:38 | 11.87626 | 121.74710 | 6458 ft | 216 kts | 148° |
| 2026-05-07 16:38 | 11.86323 | 121.75384 | 6375 ft | 203 kts | 148° |
| 2026-05-07 16:38 | 11.85107 | 121.76014 | 6248 ft | 189 kts | 145° |
| 2026-05-07 16:39 | 11.84226 | 121.76861 | 6118 ft | 165 kts | 116° |
| 2026-05-07 16:39 | 11.83939 | 121.77912 | 5965 ft | 148 kts | 90° |
| 2026-05-07 16:39 | 11.84155 | 121.78905 | 5756 ft | 140 kts | 68° |
| 2026-05-07 16:39 | 11.84590 | 121.79797 | 5440 ft | 141 kts | 64° |
| 2026-05-07 16:40 | 11.85086 | 121.80661 | 5109 ft | 142 kts | 63° |
| 2026-05-07 16:40 | 11.85601 | 121.81516 | 4794 ft | 140 kts | 62° |
| 2026-05-07 16:40 | 11.86067 | 121.82376 | 4485 ft | 137 kts | 65° |
| 2026-05-07 16:40 | 11.86541 | 121.83225 | 4117 ft | 140 kts | 63° |
| 2026-05-07 16:41 | 11.87057 | 121.84091 | 3709 ft | 145 kts | 63° |
| 2026-05-07 16:41 | 11.87533 | 121.84966 | 3420 ft | 140 kts | 66° |
| 2026-05-07 16:41 | 11.87932 | 121.85851 | 3148 ft | 135 kts | 71° |
| 2026-05-07 16:41 | 11.88312 | 121.86721 | 2820 ft | 135 kts | 67° |
| 2026-05-07 16:42 | 11.88725 | 121.87585 | 2476 ft | 136 kts | 66° |
| 2026-05-07 16:42 | 11.89129 | 121.88463 | 2167 ft | 135 kts | 65° |
| 2026-05-07 16:42 | 11.89512 | 121.89344 | 1688 ft | 139 kts | 67° |
| 2026-05-07 16:42 | 11.89930 | 121.90248 | 1241 ft | 140 kts | 65° |
| 2026-05-07 16:43 | 11.90334 | 121.91135 | 904 ft | 137 kts | 65° |
| 2026-05-07 16:43 | 11.90759 | 121.91991 | 656 ft | 132 kts | 62° |
| 2026-05-07 16:43 | 11.91156 | 121.92817 | 517 ft | 130 kts | 66° |
| 2026-05-07 16:43 | 11.91574 | 121.93642 | 351 ft | 131 kts | 64° |
| 2026-05-07 16:44 | 11.91996 | 121.94469 | 192 ft | 131 kts | 64° |
| 2026-05-07 16:44 | 11.92407 | 121.95298 | 28 ft | 124 kts | 63° |
| 2026-05-07 16:44 | 11.92693 | 121.95869 | 26 ft | 48 kts | 62° |
| 2026-05-07 16:44 | 11.92825 | 121.96131 | 30 ft | 39 kts | 62° |
| 2026-05-07 16:45 | 11.92931 | 121.96344 | 25 ft | 23 kts | 64° |
| 2026-05-07 16:45 | 11.92972 | 121.96441 | 24 ft | 9 kts | 102° |
| 2026-05-07 16:45 | 11.92928 | 121.96474 | 25 ft | 8 kts | 147° |
| 2026-05-07 16:45 | 11.92872 | 121.96504 | 27 ft | 11 kts | 153° |
| 2026-05-07 16:46 | 11.92810 | 121.96530 | 26 ft | 9 kts | 185° |
| 2026-05-07 16:46 | 11.92778 | 121.96479 | 26 ft | 8 kts | 243° |
| 2026-05-07 16:46 | 11.92754 | 121.96435 | 28 ft | 7 kts | 242° |
| 2026-05-07 16:46 | 11.92719 | 121.96430 | 28 ft | 6 kts | 149° |
| 2026-05-07 16:47 | 11.92706 | 121.96438 | 26 ft | 0 kts | 150° |